createdAt,value
2018-07-17T00:01:23.169Z,11.80
2018-07-17T00:03:52.096Z,11.80
2018-07-17T00:06:20.774Z,11.70
2018-07-17T00:08:49.361Z,11.70
2018-07-17T00:13:45.496Z,11.60
2018-07-17T00:16:13.634Z,11.60
2018-07-17T00:18:41.826Z,11.50
2018-07-17T00:21:10.532Z,11.50
2018-07-17T00:23:38.684Z,11.50
2018-07-17T00:26:06.848Z,11.60
2018-07-17T00:28:35.033Z,11.60
2018-07-17T00:31:03.188Z,11.60
2018-07-17T00:33:31.367Z,11.60
2018-07-17T00:35:59.543Z,11.50
2018-07-17T00:38:27.712Z,11.50
2018-07-17T00:40:55.901Z,11.50
2018-07-17T00:43:24.076Z,11.50
2018-07-17T00:45:52.254Z,11.50
2018-07-17T00:48:20.427Z,11.40
2018-07-17T00:50:48.596Z,11.40
2018-07-17T00:53:16.773Z,11.40
2018-07-17T00:55:44.958Z,11.40
2018-07-17T00:58:13.133Z,11.30
2018-07-17T01:00:45.562Z,11.20
2018-07-17T01:03:19.713Z,11.20
2018-07-17T01:05:53.762Z,11.10
2018-07-17T01:08:27.469Z,11.10
2018-07-17T01:11:00.913Z,11.10
2018-07-17T01:13:48.557Z,11.10
2018-07-17T01:16:17.769Z,11.10
2018-07-17T01:18:46.973Z,11.20
2018-07-17T01:21:15.121Z,11.00
2018-07-17T01:23:43.322Z,11.00
2018-07-17T01:26:11.496Z,11.00
2018-07-17T01:28:39.648Z,10.90
2018-07-17T01:31:07.813Z,10.80
2018-07-17T01:33:36.004Z,10.90
2018-07-17T01:36:04.166Z,10.80
2018-07-17T01:38:32.446Z,10.80
2018-07-17T01:41:01.406Z,10.80
2018-07-17T01:43:29.620Z,10.70
2018-07-17T01:45:57.777Z,10.90
2018-07-17T01:48:25.960Z,10.80
2018-07-17T01:50:56.205Z,10.80
2018-07-17T01:53:24.384Z,10.80
2018-07-17T01:55:52.533Z,10.80
2018-07-17T01:58:22.785Z,10.80
2018-07-17T02:00:50.970Z,10.80
2018-07-17T02:03:20.137Z,10.80
2018-07-17T02:05:48.377Z,10.80
2018-07-17T02:08:16.593Z,10.80
2018-07-17T02:10:44.731Z,10.80
2018-07-17T02:13:12.961Z,10.80
2018-07-17T02:15:41.171Z,10.70
2018-07-17T02:18:10.297Z,10.70
2018-07-17T02:20:39.490Z,10.70
2018-07-17T02:23:07.646Z,10.80
2018-07-17T02:25:36.990Z,10.70
2018-07-17T02:28:05.128Z,10.80
2018-07-17T02:30:33.327Z,10.80
2018-07-17T02:33:01.572Z,10.80
2018-07-17T02:35:29.770Z,10.80
2018-07-17T02:37:57.912Z,10.70
2018-07-17T02:40:26.114Z,10.70
2018-07-17T02:42:54.326Z,10.70
2018-07-17T02:45:22.454Z,10.70
2018-07-17T02:47:50.617Z,10.70
2018-07-17T02:50:18.803Z,10.70
2018-07-17T02:52:46.969Z,10.60
2018-07-17T02:55:15.144Z,10.60
2018-07-17T02:57:43.317Z,10.50
2018-07-17T03:00:11.506Z,10.50
2018-07-17T03:02:39.657Z,10.40
2018-07-17T03:05:07.840Z,10.40
2018-07-17T03:07:37.028Z,10.40
2018-07-17T03:10:05.223Z,10.40
2018-07-17T03:12:34.412Z,10.40
2018-07-17T03:15:02.612Z,10.40
2018-07-17T03:17:30.749Z,10.40
2018-07-17T03:19:58.936Z,10.40
2018-07-17T03:22:27.103Z,10.50
2018-07-17T03:24:58.494Z,10.40
2018-07-17T03:27:27.653Z,10.50
2018-07-17T03:29:55.828Z,10.50
2018-07-17T03:32:24.005Z,10.50
2018-07-17T03:34:52.226Z,10.60
2018-07-17T03:37:20.370Z,10.60
2018-07-17T03:39:48.533Z,10.70
2018-07-17T03:42:16.684Z,10.70
2018-07-17T03:44:45.108Z,10.70
2018-07-17T03:47:13.247Z,10.80
2018-07-17T03:49:41.440Z,10.90
2018-07-17T03:52:09.594Z,11.00
2018-07-17T03:54:37.772Z,11.00
2018-07-17T03:57:05.948Z,11.10
2018-07-17T03:59:34.137Z,11.10
2018-07-17T04:02:02.311Z,11.20
2018-07-17T04:04:30.494Z,11.30
2018-07-17T04:06:58.642Z,11.30
2018-07-17T04:09:26.830Z,11.40
2018-07-17T04:11:54.997Z,11.60
2018-07-17T04:14:24.179Z,11.70
2018-07-17T04:16:55.468Z,11.80
2018-07-17T04:19:24.660Z,12.00
2018-07-17T04:21:52.856Z,12.10
2018-07-17T04:24:22.238Z,12.40
2018-07-17T04:26:50.381Z,12.60
2018-07-17T04:29:18.553Z,12.70
2018-07-17T04:31:46.760Z,12.90
2018-07-17T04:34:14.986Z,13.10
2018-07-17T04:36:43.238Z,13.30
2018-07-17T04:39:12.808Z,13.50
2018-07-17T04:41:41.129Z,13.70
2018-07-17T04:44:10.136Z,13.90
2018-07-17T04:46:38.250Z,14.10
2018-07-17T04:49:06.647Z,14.40
2018-07-17T04:51:34.768Z,14.60
2018-07-17T04:54:02.878Z,14.90
2018-07-17T04:56:31.000Z,15.00
2018-07-17T04:58:59.096Z,15.10
2018-07-17T05:01:27.422Z,15.40
2018-07-17T05:03:55.499Z,15.70
2018-07-17T05:06:23.596Z,15.90
2018-07-17T05:08:51.716Z,16.10
2018-07-17T05:11:19.838Z,16.30
2018-07-17T05:13:47.940Z,16.60
2018-07-17T05:16:16.099Z,17.00
2018-07-17T05:18:44.231Z,17.20
2018-07-17T05:21:12.372Z,17.40
2018-07-17T05:23:40.508Z,17.70
2018-07-17T05:26:08.645Z,17.90
2018-07-17T05:28:36.761Z,18.00
2018-07-17T05:31:05.017Z,18.20
2018-07-17T05:33:33.136Z,18.00
2018-07-17T05:36:01.283Z,17.90
2018-07-17T05:38:29.405Z,18.10
2018-07-17T05:40:57.536Z,18.50
2018-07-17T05:43:25.640Z,18.90
2018-07-17T05:45:53.771Z,19.20
2018-07-17T05:48:21.929Z,19.40
2018-07-17T05:50:50.048Z,19.60
2018-07-17T05:53:18.173Z,19.50
2018-07-17T05:55:46.316Z,19.60
2018-07-17T05:58:14.429Z,19.70
2018-07-17T06:00:42.588Z,19.90
2018-07-17T06:03:10.743Z,20.20
2018-07-17T06:05:38.882Z,20.50
2018-07-17T06:08:07.014Z,20.60
2018-07-17T06:10:35.140Z,20.60
2018-07-17T06:13:03.257Z,20.80
2018-07-17T06:15:31.392Z,21.00
2018-07-17T06:17:59.508Z,21.20
2018-07-17T06:20:27.629Z,21.50
2018-07-17T06:22:56.724Z,21.60
2018-07-17T06:25:24.826Z,21.80
2018-07-17T06:27:52.928Z,22.00
2018-07-17T06:30:21.053Z,22.10
2018-07-17T06:32:49.190Z,22.20
2018-07-17T06:35:17.340Z,22.30
2018-07-17T06:37:45.448Z,22.30
2018-07-17T06:40:13.560Z,22.30
2018-07-17T06:42:41.686Z,22.40
2018-07-17T06:45:09.818Z,22.50
2018-07-17T06:47:37.935Z,22.50
2018-07-17T06:50:06.193Z,22.60
2018-07-17T06:52:34.296Z,22.70
2018-07-17T06:55:02.415Z,22.80
2018-07-17T06:57:30.588Z,22.90
2018-07-17T06:59:58.666Z,23.00
2018-07-17T07:02:26.814Z,23.00
2018-07-17T07:04:54.937Z,23.10
2018-07-17T07:07:23.074Z,23.10
2018-07-17T07:09:51.232Z,23.30
2018-07-17T07:12:19.344Z,23.40
2018-07-17T07:14:47.475Z,23.30
2018-07-17T07:17:15.593Z,23.40
2018-07-17T07:19:43.934Z,23.70
2018-07-17T07:22:12.147Z,23.80
2018-07-17T07:24:40.293Z,23.70
2018-07-17T07:29:36.384Z,23.60
2018-07-17T07:32:04.608Z,23.50
2018-07-17T07:34:32.755Z,23.70
2018-07-17T07:37:00.903Z,23.80
2018-07-17T07:39:29.042Z,23.90
2018-07-17T07:41:57.208Z,24.10
2018-07-17T07:44:25.350Z,24.10
2018-07-17T07:46:53.510Z,24.20
2018-07-17T07:49:21.648Z,24.30
2018-07-17T07:51:49.790Z,24.60
2018-07-17T07:54:17.909Z,24.70
2018-07-17T07:56:46.041Z,24.80
2018-07-17T07:59:14.160Z,25.00
2018-07-17T08:01:42.330Z,25.00
2018-07-17T08:04:10.529Z,25.20
2018-07-17T08:06:38.657Z,25.30
2018-07-17T08:09:07.497Z,25.40
2018-07-17T08:11:35.704Z,25.50
2018-07-17T08:14:03.802Z,25.40
2018-07-17T08:16:32.028Z,25.50
2018-07-17T08:19:00.177Z,25.70
2018-07-17T08:21:28.300Z,25.70
2018-07-17T08:23:56.478Z,25.70
2018-07-17T08:26:24.604Z,25.80
2018-07-17T08:28:52.833Z,25.80
2018-07-17T08:31:20.980Z,25.60
2018-07-17T08:36:17.169Z,25.40
2018-07-17T08:38:45.345Z,25.50
2018-07-17T08:41:13.493Z,25.60
2018-07-17T08:43:41.650Z,25.60
2018-07-17T08:46:09.795Z,25.50
2018-07-17T08:48:37.953Z,25.60
2018-07-17T08:51:06.237Z,25.60
2018-07-17T08:53:34.368Z,25.40
2018-07-17T08:56:02.515Z,25.40
2018-07-17T08:58:30.673Z,25.50
2018-07-17T09:00:58.835Z,25.80
2018-07-17T09:03:26.984Z,26.00
2018-07-17T09:05:55.193Z,25.80
2018-07-17T09:08:23.272Z,25.80
2018-07-17T09:10:51.414Z,25.80
2018-07-17T09:13:19.553Z,25.80
2018-07-17T09:15:47.710Z,25.90
2018-07-17T09:20:43.781Z,25.80
2018-07-17T09:23:11.939Z,25.90
2018-07-17T09:25:40.062Z,26.00
2018-07-17T09:28:08.231Z,26.10
2018-07-17T09:30:41.853Z,26.20
2018-07-17T09:33:10.009Z,26.40
2018-07-17T09:35:38.161Z,26.50
2018-07-17T09:38:06.810Z,26.70
2018-07-17T09:40:34.969Z,26.70
2018-07-17T09:43:03.100Z,26.80
2018-07-17T09:45:31.632Z,26.80
2018-07-17T09:47:59.888Z,26.60
2018-07-17T09:50:28.036Z,26.60
2018-07-17T09:52:56.294Z,26.70
2018-07-17T09:55:24.441Z,26.80
2018-07-17T09:57:52.669Z,26.70
2018-07-17T10:00:26.234Z,26.70
2018-07-17T10:02:54.376Z,26.70
2018-07-17T10:05:22.505Z,26.60
2018-07-17T10:07:50.630Z,26.60
2018-07-17T10:10:18.770Z,26.50
2018-07-17T10:12:47.078Z,26.50
2018-07-17T10:17:43.502Z,26.50
2018-07-17T10:20:11.686Z,26.70
2018-07-17T10:22:40.064Z,26.90
2018-07-17T10:25:08.768Z,26.90
2018-07-17T10:27:36.946Z,26.90
2018-07-17T10:32:33.010Z,26.60
2018-07-17T10:35:01.118Z,26.40
2018-07-17T10:37:29.237Z,26.60
2018-07-17T10:42:25.293Z,27.10
2018-07-17T10:44:54.429Z,27.20
2018-07-17T10:47:22.657Z,27.30
2018-07-17T10:52:18.972Z,27.30
2018-07-17T10:54:47.471Z,27.20
2018-07-17T10:57:15.930Z,27.30
2018-07-17T10:59:44.392Z,27.40
2018-07-17T11:02:12.604Z,27.50
2018-07-17T11:04:40.720Z,27.80
2018-07-17T11:07:08.833Z,28.00
2018-07-17T11:09:36.982Z,28.20
2018-07-17T11:12:05.084Z,28.10
2018-07-17T11:14:33.202Z,28.20
2018-07-17T11:17:01.341Z,28.00
2018-07-17T11:19:29.488Z,27.90
2018-07-17T11:21:57.627Z,27.70
2018-07-17T11:24:26.185Z,27.70
2018-07-17T11:26:54.340Z,27.90
2018-07-17T11:29:22.493Z,28.10
2018-07-17T11:31:50.639Z,27.90
2018-07-17T11:34:18.765Z,27.50
2018-07-17T11:39:14.803Z,27.50
2018-07-17T11:44:10.869Z,27.50
2018-07-17T11:46:39.013Z,27.50
2018-07-17T11:49:07.141Z,27.70
2018-07-17T11:51:35.268Z,27.40
2018-07-17T11:54:03.412Z,27.30
2018-07-17T11:56:31.571Z,26.80
2018-07-17T11:58:59.824Z,26.70
2018-07-17T12:01:27.885Z,26.70
2018-07-17T12:03:56.013Z,26.90
2018-07-17T12:06:24.165Z,27.00
2018-07-17T12:08:52.297Z,27.10
2018-07-17T12:11:20.581Z,27.20
2018-07-17T12:13:48.784Z,27.30
2018-07-17T12:16:16.978Z,27.30
2018-07-17T12:18:45.099Z,27.30
2018-07-17T12:21:13.241Z,27.40
2018-07-17T12:23:41.389Z,27.50
2018-07-17T12:26:09.524Z,27.20
2018-07-17T12:28:37.657Z,27.20
2018-07-17T12:31:05.889Z,27.10
2018-07-17T12:33:34.048Z,27.20
2018-07-17T12:36:02.197Z,27.10
2018-07-17T12:40:58.276Z,27.10
2018-07-17T12:43:26.487Z,27.00
2018-07-17T12:45:54.609Z,27.00
2018-07-17T12:48:22.720Z,27.10
2018-07-17T12:50:50.845Z,27.00
2018-07-17T12:53:18.974Z,27.00
2018-07-17T12:55:47.097Z,27.20
2018-07-17T12:58:15.230Z,27.80
2018-07-17T13:00:43.364Z,27.80
2018-07-17T13:03:11.478Z,28.00
2018-07-17T13:05:39.615Z,27.80
2018-07-17T13:08:07.741Z,27.60
2018-07-17T13:13:03.768Z,27.90
2018-07-17T13:15:31.969Z,28.00
2018-07-17T13:18:00.064Z,28.00
2018-07-17T13:20:28.214Z,27.90
2018-07-17T13:22:56.376Z,27.90
2018-07-17T13:25:24.525Z,28.00
2018-07-17T13:27:52.757Z,27.90
2018-07-17T13:30:20.914Z,27.80
2018-07-17T13:32:49.064Z,27.90
2018-07-17T13:35:17.214Z,27.70
2018-07-17T13:37:45.372Z,27.70
2018-07-17T13:40:13.544Z,27.50
2018-07-17T13:42:41.653Z,27.90
2018-07-17T13:45:09.806Z,28.10
2018-07-17T13:47:37.945Z,28.10
2018-07-17T13:50:06.168Z,28.00
2018-07-17T13:52:34.279Z,27.80
2018-07-17T13:55:02.425Z,27.40
2018-07-17T13:57:30.574Z,27.00
2018-07-17T13:59:58.776Z,27.10
2018-07-17T14:02:27.075Z,27.10
2018-07-17T14:04:55.121Z,27.00
2018-07-17T14:07:23.272Z,27.20
2018-07-17T14:09:51.436Z,27.40
2018-07-17T14:12:19.646Z,27.70
2018-07-17T14:14:47.788Z,27.60
2018-07-17T14:17:15.988Z,27.60
2018-07-17T14:19:44.089Z,27.30
2018-07-17T14:22:12.213Z,27.10
2018-07-17T14:24:40.377Z,26.80
2018-07-17T14:27:08.509Z,26.70
2018-07-17T14:29:36.640Z,26.60
2018-07-17T14:32:04.833Z,26.80
2018-07-17T14:34:33.825Z,26.80
2018-07-17T14:37:01.976Z,27.10
2018-07-17T14:39:30.078Z,27.00
2018-07-17T14:41:58.222Z,26.90
2018-07-17T14:44:26.317Z,26.60
2018-07-17T14:46:54.452Z,26.60
2018-07-17T14:49:22.583Z,26.80
2018-07-17T14:51:50.709Z,26.60
2018-07-17T14:54:18.833Z,26.30
2018-07-17T14:56:46.941Z,26.40
2018-07-17T14:59:15.053Z,26.50
2018-07-17T15:01:43.166Z,26.70
2018-07-17T15:04:11.306Z,26.80
2018-07-17T15:06:39.460Z,26.80
2018-07-17T15:09:08.473Z,26.90
2018-07-17T15:11:36.629Z,26.80
2018-07-17T15:14:04.782Z,26.80
2018-07-17T15:16:32.912Z,26.80
2018-07-17T15:19:01.061Z,26.80
2018-07-17T15:21:29.193Z,26.80
2018-07-17T15:23:57.305Z,26.60
2018-07-17T15:26:25.498Z,26.50
2018-07-17T15:28:53.566Z,26.20
2018-07-17T15:33:49.615Z,25.80
2018-07-17T15:36:17.729Z,25.90
2018-07-17T15:38:45.866Z,26.10
2018-07-17T15:41:14.043Z,26.10
2018-07-17T15:43:42.170Z,26.20
2018-07-17T15:46:10.292Z,26.20
2018-07-17T15:48:38.425Z,26.20
2018-07-17T15:51:06.568Z,26.20
2018-07-17T15:53:34.705Z,26.10
2018-07-17T15:56:02.822Z,26.20
2018-07-17T15:58:30.956Z,26.10
2018-07-17T16:00:59.069Z,26.20
2018-07-17T16:03:27.201Z,26.20
2018-07-17T16:05:55.317Z,26.20
2018-07-17T16:08:23.445Z,26.20
2018-07-17T16:10:51.561Z,26.20
2018-07-17T16:13:19.750Z,26.10
2018-07-17T16:15:47.829Z,26.00
2018-07-17T16:18:16.064Z,25.90
2018-07-17T16:20:46.169Z,25.80
2018-07-17T16:23:14.333Z,25.70
2018-07-17T16:25:42.445Z,25.70
2018-07-17T16:28:10.579Z,25.70
2018-07-17T16:33:06.617Z,25.80
2018-07-17T16:38:02.632Z,25.70
2018-07-17T16:40:30.753Z,25.60
2018-07-17T16:42:58.899Z,25.60
2018-07-17T16:47:55.099Z,25.60
2018-07-17T16:50:23.151Z,25.50
2018-07-17T16:52:51.278Z,25.40
2018-07-17T16:55:19.406Z,25.50
2018-07-17T16:57:47.539Z,25.50
2018-07-17T17:02:43.604Z,25.30
2018-07-17T17:05:11.745Z,25.30
2018-07-17T17:07:39.880Z,25.30
2018-07-17T17:10:08.001Z,25.30
2018-07-17T17:12:36.115Z,25.30
2018-07-17T17:15:04.888Z,25.40
2018-07-17T17:17:33.124Z,25.30
2018-07-17T17:20:01.232Z,25.30
2018-07-17T17:22:29.360Z,25.40
2018-07-17T17:24:57.489Z,25.30
2018-07-17T17:27:25.625Z,25.40
2018-07-17T17:32:21.675Z,25.30
2018-07-17T17:34:49.794Z,25.30
2018-07-17T17:37:17.965Z,25.30
2018-07-17T17:39:46.129Z,25.20
2018-07-17T17:42:14.270Z,25.20
2018-07-17T17:44:42.405Z,25.10
2018-07-17T17:47:10.557Z,25.10
2018-07-17T17:49:38.749Z,24.90
2018-07-17T17:52:06.882Z,24.80
2018-07-17T17:54:34.992Z,24.80
2018-07-17T17:57:03.121Z,24.80
2018-07-17T17:59:31.245Z,24.80
2018-07-17T18:02:02.881Z,24.90
2018-07-17T18:04:33.020Z,25.00
2018-07-17T18:07:04.593Z,25.00
2018-07-17T18:09:36.367Z,24.90
2018-07-17T18:12:06.671Z,24.80
2018-07-17T18:14:35.733Z,24.80
2018-07-17T18:17:03.928Z,24.60
2018-07-17T18:19:38.047Z,24.50
2018-07-17T18:25:09.162Z,24.30
2018-07-17T18:27:54.534Z,24.10
2018-07-17T18:30:39.415Z,23.90
2018-07-17T18:33:07.561Z,23.80
2018-07-17T18:35:35.682Z,23.60
2018-07-17T18:38:03.865Z,23.50
2018-07-17T18:40:31.996Z,23.50
2018-07-17T18:43:00.124Z,23.50
2018-07-17T18:45:28.256Z,23.60
2018-07-17T18:47:56.430Z,23.60
2018-07-17T18:50:24.536Z,23.50
2018-07-17T18:52:52.905Z,23.40
2018-07-17T18:55:21.043Z,23.30
2018-07-17T18:57:49.177Z,23.20
2018-07-17T19:00:17.352Z,23.10
2018-07-17T19:02:45.469Z,22.90
2018-07-17T19:05:13.586Z,22.80
2018-07-17T19:07:41.732Z,22.60
2018-07-17T19:10:09.861Z,22.40
2018-07-17T19:12:37.998Z,22.30
2018-07-17T19:15:06.385Z,22.10
2018-07-17T19:17:34.501Z,22.00
2018-07-17T19:20:02.647Z,21.90
2018-07-17T19:22:30.765Z,21.80
2018-07-17T19:24:58.904Z,21.70
2018-07-17T19:27:27.012Z,21.50
2018-07-17T19:29:55.178Z,21.40
2018-07-17T19:32:23.327Z,21.20
2018-07-17T19:34:51.401Z,21.00
2018-07-17T19:37:19.579Z,20.90
2018-07-17T19:39:48.722Z,20.70
2018-07-17T19:42:16.867Z,20.50
2018-07-17T19:44:45.116Z,20.30
2018-07-17T19:47:29.650Z,20.10
2018-07-17T19:50:01.402Z,20.00
2018-07-17T19:52:29.525Z,19.80
2018-07-17T19:54:57.647Z,19.70
2018-07-17T19:57:25.789Z,19.60
2018-07-17T19:59:53.929Z,19.60
2018-07-17T20:02:22.057Z,19.50
2018-07-17T20:04:50.193Z,19.50
2018-07-17T20:07:18.304Z,19.40
2018-07-17T20:09:46.429Z,19.30
2018-07-17T20:12:14.537Z,19.20
2018-07-17T20:14:42.677Z,19.10
2018-07-17T20:17:10.793Z,19.00
2018-07-17T20:19:38.934Z,18.90
2018-07-17T20:22:07.044Z,18.80
2018-07-17T20:24:35.217Z,18.80
2018-07-17T20:27:03.308Z,18.90
2018-07-17T20:29:31.414Z,18.90
2018-07-17T20:31:59.524Z,18.90
2018-07-17T20:34:27.652Z,19.00
2018-07-17T20:36:55.855Z,19.10
2018-07-17T20:39:23.968Z,19.20
2018-07-17T20:41:52.132Z,19.20
2018-07-17T20:44:20.225Z,19.30
2018-07-17T20:46:48.334Z,19.30
2018-07-17T20:49:16.437Z,19.30
2018-07-17T20:51:44.543Z,19.30
2018-07-17T20:54:12.661Z,19.30
2018-07-17T20:56:40.829Z,19.30
2018-07-17T20:59:08.932Z,19.40
2018-07-17T21:01:37.068Z,19.50
2018-07-17T21:04:05.189Z,19.60
2018-07-17T21:06:33.312Z,19.70
2018-07-17T21:09:01.436Z,19.90
2018-07-17T21:11:29.573Z,19.90
2018-07-17T21:13:57.686Z,20.00
2018-07-17T21:16:25.840Z,20.00
2018-07-17T21:18:53.995Z,19.90
2018-07-17T21:21:22.146Z,19.90
2018-07-17T21:23:50.281Z,19.90
2018-07-17T21:26:18.400Z,19.90
2018-07-17T21:28:46.521Z,19.80
2018-07-17T21:31:14.645Z,19.70
2018-07-17T21:33:42.781Z,19.70
2018-07-17T21:36:10.893Z,19.60
2018-07-17T21:38:39.003Z,19.50
2018-07-17T21:41:07.140Z,19.50
2018-07-17T21:43:35.285Z,19.40
2018-07-17T21:46:03.400Z,19.50
2018-07-17T21:48:31.537Z,19.40
2018-07-17T21:50:59.675Z,19.30
2018-07-17T21:53:27.808Z,19.20
2018-07-17T21:55:55.949Z,19.20
2018-07-17T21:58:24.105Z,19.30
2018-07-17T22:00:52.895Z,19.40
2018-07-17T22:03:21.381Z,19.40
2018-07-17T22:05:49.505Z,19.40
2018-07-17T22:08:17.630Z,19.30
2018-07-17T22:10:45.737Z,19.30
2018-07-17T22:13:13.847Z,19.20
2018-07-17T22:15:41.969Z,19.20
2018-07-17T22:18:11.151Z,19.20
2018-07-17T22:20:39.314Z,19.20
2018-07-17T22:23:07.421Z,19.00
2018-07-17T22:25:35.526Z,19.00
2018-07-17T22:28:03.648Z,19.00
2018-07-17T22:30:31.745Z,18.90
2018-07-17T22:32:59.848Z,18.90
2018-07-17T22:35:28.077Z,18.90
2018-07-17T22:37:56.180Z,18.80
2018-07-17T22:40:24.293Z,18.80
2018-07-17T22:42:52.416Z,18.70
2018-07-17T22:45:20.525Z,18.70
2018-07-17T22:47:48.614Z,18.60
2018-07-17T22:50:16.729Z,18.50
2018-07-17T22:52:44.890Z,18.50
2018-07-17T22:55:13.105Z,18.50
2018-07-17T22:57:41.213Z,18.40
2018-07-17T23:00:09.341Z,18.30
2018-07-17T23:02:37.441Z,18.30
2018-07-17T23:05:05.679Z,18.30
2018-07-17T23:07:33.769Z,18.30
2018-07-17T23:10:01.881Z,18.20
2018-07-17T23:12:29.993Z,18.20
2018-07-17T23:14:58.103Z,18.10
2018-07-17T23:17:26.224Z,18.10
2018-07-17T23:19:54.352Z,18.10
2018-07-17T23:22:31.793Z,18.10
2018-07-17T23:24:59.952Z,18.00
2018-07-17T23:27:28.040Z,18.00
2018-07-17T23:29:56.143Z,18.00
2018-07-17T23:32:24.257Z,18.00
2018-07-17T23:34:52.360Z,18.00
2018-07-17T23:37:20.469Z,17.80
2018-07-17T23:39:48.583Z,17.80
2018-07-17T23:42:16.690Z,17.70
2018-07-17T23:44:44.804Z,17.60
2018-07-17T23:47:12.900Z,17.50
2018-07-17T23:49:43.522Z,17.50
2018-07-17T23:52:11.621Z,17.50
2018-07-17T23:54:39.753Z,17.40
2018-07-17T23:57:07.858Z,17.30
2018-07-17T23:59:35.973Z,17.30
